sensor_id;sensor_type;location;lat;lon;timestamp;pressure;altitude;pressure_sealevel;temperature;humidity
22550;BME280;11441;57.164;-2.120;2022-10-22T00:00:06;99427.28;;;12.86;100.00
22550;BME280;11441;57.164;-2.120;2022-10-22T00:02:52;99414.22;;;12.93;100.00
22550;BME280;11441;57.164;-2.120;2022-10-22T00:05:19;99421.69;;;13.00;100.00
22550;BME280;11441;57.164;-2.120;2022-10-22T00:07:46;99428.00;;;12.97;100.00
22550;BME280;11441;57.164;-2.120;2022-10-22T00:10:13;99434.78;;;12.78;100.00
22550;BME280;11441;57.164;-2.120;2022-10-22T00:12:39;99432.81;;;12.75;100.00
22550;BME280;11441;57.164;-2.120;2022-10-22T00:15:06;99431.25;;;12.81;100.00
22550;BME280;11441;57.164;-2.120;2022-10-22T00:17:33;99430.84;;;12.79;100.00
22550;BME280;11441;57.164;-2.120;2022-10-22T00:20:02;99434.38;;;12.83;100.00
22550;BME280;11441;57.164;-2.120;2022-10-22T00:22:29;99426.47;;;12.85;100.00
22550;BME280;11441;57.164;-2.120;2022-10-22T00:24:56;99429.66;;;12.80;100.00
22550;BME280;11441;57.164;-2.120;2022-10-22T00:27:23;99432.44;;;12.83;100.00
22550;BME280;11441;57.164;-2.120;2022-10-22T00:29:50;99434.34;;;12.90;100.00
22550;BME280;11441;57.164;-2.120;2022-10-22T00:32:17;99431.13;;;13.02;100.00
22550;BME280;11441;57.164;-2.120;2022-10-22T00:34:44;99428.06;;;12.86;100.00
22550;BME280;11441;57.164;-2.120;2022-10-22T00:37:11;99443.88;;;12.86;100.00
22550;BME280;11441;57.164;-2.120;2022-10-22T00:39:38;99434.41;;;12.76;100.00
22550;BME280;11441;57.164;-2.120;2022-10-22T00:42:04;99424.53;;;12.82;100.00
22550;BME280;11441;57.164;-2.120;2022-10-22T00:47:54;99428.03;;;12.90;100.00
22550;BME280;11441;57.164;-2.120;2022-10-22T00:50:26;99429.19;;;12.99;100.00
22550;BME280;11441;57.164;-2.120;2022-10-22T00:52:55;99430.78;;;12.97;100.00
22550;BME280;11441;57.164;-2.120;2022-10-22T00:55:23;99426.03;;;12.94;100.00
22550;BME280;11441;57.164;-2.120;2022-10-22T00:58:09;99432.34;;;13.01;100.00
22550;BME280;11441;57.164;-2.120;2022-10-22T01:00:57;99425.22;;;13.04;100.00
22550;BME280;11441;57.164;-2.120;2022-10-22T01:03:24;99418.88;;;13.07;100.00
22550;BME280;11441;57.164;-2.120;2022-10-22T01:06:02;99424.00;;;13.09;100.00
22550;BME280;11441;57.164;-2.120;2022-10-22T01:08:38;99421.25;;;13.09;100.00
22550;BME280;11441;57.164;-2.120;2022-10-22T01:14:35;99414.97;;;12.97;100.00
22550;BME280;11441;57.164;-2.120;2022-10-22T01:17:24;99418.91;;;13.00;100.00
22550;BME280;11441;57.164;-2.120;2022-10-22T01:23:16;99412.63;;;12.99;100.00
22550;BME280;11441;57.164;-2.120;2022-10-22T01:31:01;99412.22;;;12.97;100.00
22550;BME280;11441;57.164;-2.120;2022-10-22T01:33:30;99411.75;;;13.06;100.00
22550;BME280;11441;57.164;-2.120;2022-10-22T01:35:58;99405.44;;;13.09;100.00
22550;BME280;11441;57.164;-2.120;2022-10-22T01:38:25;99407.03;;;13.07;100.00
22550;BME280;11441;57.164;-2.120;2022-10-22T01:40:53;99397.16;;;13.06;100.00
22550;BME280;11441;57.164;-2.120;2022-10-22T01:43:21;99405.53;;;12.91;100.00
22550;BME280;11441;57.164;-2.120;2022-10-22T01:46:26;99394.09;;;12.93;100.00
22550;BME280;11441;57.164;-2.120;2022-10-22T01:49:04;99405.06;;;13.07;100.00
22550;BME280;11441;57.164;-2.120;2022-10-22T01:54:40;99405.91;;;12.97;100.00
22550;BME280;11441;57.164;-2.120;2022-10-22T01:57:16;99403.94;;;13.01;100.00
22550;BME280;11441;57.164;-2.120;2022-10-22T02:00:05;99408.97;;;13.17;100.00
22550;BME280;11441;57.164;-2.120;2022-10-22T02:02:48;99400.72;;;13.02;100.00
22550;BME280;11441;57.164;-2.120;2022-10-22T02:05:27;99401.53;;;13.07;100.00
22550;BME280;11441;57.164;-2.120;2022-10-22T02:08:02;99399.09;;;13.12;100.00
22550;BME280;11441;57.164;-2.120;2022-10-22T02:10:32;99400.28;;;13.11;100.00
22550;BME280;11441;57.164;-2.120;2022-10-22T02:13:00;99401.59;;;12.96;100.00
22550;BME280;11441;57.164;-2.120;2022-10-22T02:15:29;99397.56;;;13.04;100.00
22550;BME280;11441;57.164;-2.120;2022-10-22T02:17:59;99406.25;;;13.02;100.00
22550;BME280;11441;57.164;-2.120;2022-10-22T02:20:30;99397.66;;;12.90;100.00
22550;BME280;11441;57.164;-2.120;2022-10-22T02:22:58;99404.38;;;12.85;100.00
22550;BME280;11441;57.164;-2.120;2022-10-22T02:25:32;99403.16;;;12.93;100.00
22550;BME280;11441;57.164;-2.120;2022-10-22T02:28:04;99399.59;;;12.96;100.00
22550;BME280;11441;57.164;-2.120;2022-10-22T02:30:37;99399.19;;;12.98;100.00
22550;BME280;11441;57.164;-2.120;2022-10-22T02:33:10;99392.84;;;13.05;100.00
22550;BME280;11441;57.164;-2.120;2022-10-22T02:35:40;99402.34;;;12.96;100.00
22550;BME280;11441;57.164;-2.120;2022-10-22T02:38:26;99396.38;;;13.09;100.00
22550;BME280;11441;57.164;-2.120;2022-10-22T02:40:53;99390.91;;;12.98;100.00
22550;BME280;11441;57.164;-2.120;2022-10-22T02:43:23;99389.72;;;12.95;100.00
22550;BME280;11441;57.164;-2.120;2022-10-22T02:45:50;99381.44;;;12.95;100.00
22550;BME280;11441;57.164;-2.120;2022-10-22T02:48:17;99384.50;;;13.12;100.00
22550;BME280;11441;57.164;-2.120;2022-10-22T02:50:44;99382.16;;;13.10;100.00
22550;BME280;11441;57.164;-2.120;2022-10-22T02:53:11;99386.50;;;13.08;100.00
22550;BME280;11441;57.164;-2.120;2022-10-22T02:55:37;99377.03;;;13.09;100.00
22550;BME280;11441;57.164;-2.120;2022-10-22T02:58:04;99379.44;;;12.99;100.00
22550;BME280;11441;57.164;-2.120;2022-10-22T03:00:31;99384.56;;;13.05;100.00
22550;BME280;11441;57.164;-2.120;2022-10-22T03:02:58;99378.19;;;13.08;100.00
22550;BME280;11441;57.164;-2.120;2022-10-22T03:05:25;99378.19;;;13.08;100.00
22550;BME280;11441;57.164;-2.120;2022-10-22T03:07:52;99375.72;;;13.28;100.00
22550;BME280;11441;57.164;-2.120;2022-10-22T03:10:18;99378.94;;;13.19;100.00
22550;BME280;11441;57.164;-2.120;2022-10-22T03:12:45;99375.84;;;13.02;100.00
22550;BME280;11441;57.164;-2.120;2022-10-22T03:15:12;99376.56;;;13.21;100.00
22550;BME280;11441;57.164;-2.120;2022-10-22T03:17:39;99375.44;;;13.08;100.00
22550;BME280;11441;57.164;-2.120;2022-10-22T03:20:06;99380.94;;;13.15;100.00
22550;BME280;11441;57.164;-2.120;2022-10-22T03:22:34;99375.41;;;13.15;100.00
22550;BME280;11441;57.164;-2.120;2022-10-22T03:25:05;99376.56;;;13.17;100.00
22550;BME280;11441;57.164;-2.120;2022-10-22T03:27:37;99379.03;;;12.97;100.00
22550;BME280;11441;57.164;-2.120;2022-10-22T03:30:06;99382.56;;;13.09;100.00
22550;BME280;11441;57.164;-2.120;2022-10-22T03:32:33;99380.13;;;13.14;100.00
22550;BME280;11441;57.164;-2.120;2022-10-22T03:35:19;99385.28;;;13.12;100.00
22550;BME280;11441;57.164;-2.120;2022-10-22T03:38:03;99377.03;;;13.05;100.00
22550;BME280;11441;57.164;-2.120;2022-10-22T03:40:29;99382.53;;;13.12;100.00
22550;BME280;11441;57.164;-2.120;2022-10-22T03:42:57;99382.91;;;13.14;100.00
22550;BME280;11441;57.164;-2.120;2022-10-22T03:45:24;99394.75;;;13.18;100.00
22550;BME280;11441;57.164;-2.120;2022-10-22T03:47:51;99377.75;;;13.16;100.00
22550;BME280;11441;57.164;-2.120;2022-10-22T03:50:37;99390.31;;;13.28;100.00
22550;BME280;11441;57.164;-2.120;2022-10-22T03:53:04;99389.94;;;13.26;100.00
22550;BME280;11441;57.164;-2.120;2022-10-22T03:55:32;99384.03;;;13.24;100.00
22550;BME280;11441;57.164;-2.120;2022-10-22T03:57:59;99380.47;;;13.27;100.00
22550;BME280;11441;57.164;-2.120;2022-10-22T04:00:26;99383.22;;;13.27;100.00
22550;BME280;11441;57.164;-2.120;2022-10-22T04:02:52;99378.53;;;13.20;100.00
22550;BME280;11441;57.164;-2.120;2022-10-22T04:05:19;99376.56;;;13.21;100.00
22550;BME280;11441;57.164;-2.120;2022-10-22T04:07:46;99384.13;;;13.10;100.00
22550;BME280;11441;57.164;-2.120;2022-10-22T04:10:13;99378.13;;;13.22;100.00
22550;BME280;11441;57.164;-2.120;2022-10-22T04:12:40;99382.09;;;13.17;100.00
22550;BME280;11441;57.164;-2.120;2022-10-22T04:15:24;99376.25;;;13.08;100.00
22550;BME280;11441;57.164;-2.120;2022-10-22T04:17:54;99383.28;;;13.16;100.00
22550;BME280;11441;57.164;-2.120;2022-10-22T04:20:21;99381.69;;;13.19;100.00
22550;BME280;11441;57.164;-2.120;2022-10-22T04:22:47;99385.72;;;13.07;100.00
22550;BME280;11441;57.164;-2.120;2022-10-22T04:25:14;99381.78;;;13.08;100.00
22550;BME280;11441;57.164;-2.120;2022-10-22T04:27:41;99380.94;;;13.15;100.00
22550;BME280;11441;57.164;-2.120;2022-10-22T04:30:08;99380.16;;;13.11;100.00
22550;BME280;11441;57.164;-2.120;2022-10-22T04:32:35;99383.34;;;13.06;100.00
22550;BME280;11441;57.164;-2.120;2022-10-22T04:35:21;99383.31;;;13.13;100.00
22550;BME280;11441;57.164;-2.120;2022-10-22T04:37:48;99379.78;;;13.09;100.00
22550;BME280;11441;57.164;-2.120;2022-10-22T04:40:14;99381.38;;;13.10;100.00
22550;BME280;11441;57.164;-2.120;2022-10-22T04:42:41;99377.81;;;13.06;100.00
22550;BME280;11441;57.164;-2.120;2022-10-22T04:45:08;99375.84;;;13.02;100.00
22550;BME280;11441;57.164;-2.120;2022-10-22T04:47:35;99382.97;;;13.04;100.00
22550;BME280;11441;57.164;-2.120;2022-10-22T04:50:03;99385.72;;;13.04;100.00
22550;BME280;11441;57.164;-2.120;2022-10-22T04:52:30;99375.06;;;13.06;100.00
22550;BME280;11441;57.164;-2.120;2022-10-22T04:54:57;99377.88;;;12.98;100.00
22550;BME280;11441;57.164;-2.120;2022-10-22T04:57:23;99383.38;;;13.02;100.00
22550;BME280;11441;57.164;-2.120;2022-10-22T04:59:51;99382.59;;;13.01;100.00
22550;BME280;11441;57.164;-2.120;2022-10-22T05:02:18;99385.72;;;13.04;100.00
22550;BME280;11441;57.164;-2.120;2022-10-22T05:04:44;99389.25;;;13.08;100.00
22550;BME280;11441;57.164;-2.120;2022-10-22T05:07:30;99388.06;;;13.09;100.00
22550;BME280;11441;57.164;-2.120;2022-10-22T05:09:57;99387.69;;;13.07;100.00
22550;BME280;11441;57.164;-2.120;2022-10-22T05:12:24;99390.47;;;13.07;100.00
22550;BME280;11441;57.164;-2.120;2022-10-22T05:14:51;99388.47;;;13.07;100.00
22550;BME280;11441;57.164;-2.120;2022-10-22T05:17:18;99396.78;;;13.07;100.00
22550;BME280;11441;57.164;-2.120;2022-10-22T05:19:45;99392.03;;;13.08;100.00
22550;BME280;11441;57.164;-2.120;2022-10-22T05:22:11;99388.94;;;12.95;100.00
22550;BME280;11441;57.164;-2.120;2022-10-22T05:24:38;99398.78;;;13.03;100.00
22550;BME280;11441;57.164;-2.120;2022-10-22T05:27:05;99391.25;;;13.04;100.00
22550;BME280;11441;57.164;-2.120;2022-10-22T05:29:51;99397.53;;;13.08;100.00
22550;BME280;11441;57.164;-2.120;2022-10-22T05:32:18;99400.34;;;13.00;100.00
22550;BME280;11441;57.164;-2.120;2022-10-22T05:34:44;99404.69;;;13.05;100.00
22550;BME280;11441;57.164;-2.120;2022-10-22T05:37:11;99398.38;;;12.97;100.00
22550;BME280;11441;57.164;-2.120;2022-10-22T05:39:38;99399.19;;;13.01;100.00
22550;BME280;11441;57.164;-2.120;2022-10-22T05:42:06;99398.78;;;13.03;100.00
22550;BME280;11441;57.164;-2.120;2022-10-22T05:44:33;99401.16;;;12.97;100.00
22550;BME280;11441;57.164;-2.120;2022-10-22T05:46:59;99401.59;;;12.96;100.00
22550;BME280;11441;57.164;-2.120;2022-10-22T05:49:26;99396.44;;;12.94;100.00
22550;BME280;11441;57.164;-2.120;2022-10-22T05:51:53;99399.56;;;13.04;100.00
22550;BME280;11441;57.164;-2.120;2022-10-22T05:54:20;99396.44;;;12.94;100.00
22550;BME280;11441;57.164;-2.120;2022-10-22T05:56:50;99398.38;;;13.05;100.00
22550;BME280;11441;57.164;-2.120;2022-10-22T05:59:17;99393.19;;;13.10;100.00
22550;BME280;11441;57.164;-2.120;2022-10-22T06:01:43;99396.44;;;12.98;100.00
22550;BME280;11441;57.164;-2.120;2022-10-22T06:04:11;99401.59;;;12.96;100.00
22550;BME280;11441;57.164;-2.120;2022-10-22T06:06:42;99399.94;;;13.02;100.00
22550;BME280;11441;57.164;-2.120;2022-10-22T06:09:25;99396.84;;;12.96;100.00
22550;BME280;11441;57.164;-2.120;2022-10-22T06:11:54;99402.72;;;13.02;100.00
22550;BME280;11441;57.164;-2.120;2022-10-22T06:14:21;99400.75;;;12.99;100.00
22550;BME280;11441;57.164;-2.120;2022-10-22T06:16:48;99410.22;;;13.01;100.00
22550;BME280;11441;57.164;-2.120;2022-10-22T06:19:17;99411.00;;;13.02;100.00
22550;BME280;11441;57.164;-2.120;2022-10-22T06:21:45;99421.31;;;12.94;100.00
22550;BME280;11441;57.164;-2.120;2022-10-22T06:24:12;99414.25;;;12.82;100.00
22550;BME280;11441;57.164;-2.120;2022-10-22T06:26:39;99417.38;;;12.88;100.00
22550;BME280;11441;57.164;-2.120;2022-10-22T06:29:07;99415.84;;;12.83;100.00
22550;BME280;11441;57.164;-2.120;2022-10-22T06:31:34;99417.34;;;12.95;100.00
22550;BME280;11441;57.164;-2.120;2022-10-22T06:34:06;99413.44;;;12.93;100.00
22550;BME280;11441;57.164;-2.120;2022-10-22T06:36:33;99423.28;;;12.90;100.00
22550;BME280;11441;57.164;-2.120;2022-10-22T06:39:19;99422.47;;;13.00;100.00
22550;BME280;11441;57.164;-2.120;2022-10-22T06:41:45;99416.19;;;12.93;100.00
22550;BME280;11441;57.164;-2.120;2022-10-22T06:44:34;99429.22;;;12.89;100.00
22550;BME280;11441;57.164;-2.120;2022-10-22T06:47:01;99420.94;;;12.89;100.00
22550;BME280;11441;57.164;-2.120;2022-10-22T06:49:28;99425.69;;;12.85;100.00
22550;BME280;11441;57.164;-2.120;2022-10-22T06:51:55;99422.16;;;12.84;100.00
22550;BME280;11441;57.164;-2.120;2022-10-22T06:54:22;99426.47;;;12.85;100.00
22550;BME280;11441;57.164;-2.120;2022-10-22T06:56:48;99427.28;;;12.86;100.00
22550;BME280;11441;57.164;-2.120;2022-10-22T06:59:15;99429.25;;;12.81;100.00
22550;BME280;11441;57.164;-2.120;2022-10-22T07:04:46;99434.75;;;12.92;100.00
22550;BME280;11441;57.164;-2.120;2022-10-22T07:07:13;99436.38;;;12.82;100.00
22550;BME280;11441;57.164;-2.120;2022-10-22T07:09:41;99440.28;;;12.85;100.00
22550;BME280;11441;57.164;-2.120;2022-10-22T07:12:10;99443.47;;;12.87;100.00
22550;BME280;11441;57.164;-2.120;2022-10-22T07:14:38;99439.53;;;12.81;100.00
22550;BME280;11441;57.164;-2.120;2022-10-22T07:17:05;99447.81;;;12.81;100.00
22550;BME280;11441;57.164;-2.120;2022-10-22T07:19:32;99448.19;;;12.87;100.00
22550;BME280;11441;57.164;-2.120;2022-10-22T07:21:59;99439.13;;;12.86;100.00
22550;BME280;11441;57.164;-2.120;2022-10-22T07:24:26;99453.28;;;12.92;100.00
22550;BME280;11441;57.164;-2.120;2022-10-22T07:26:53;99451.75;;;12.87;100.00
22550;BME280;11441;57.164;-2.120;2022-10-22T07:29:20;99454.09;;;12.89;100.00
22550;BME280;11441;57.164;-2.120;2022-10-22T07:31:47;99459.22;;;12.90;100.00
22550;BME280;11441;57.164;-2.120;2022-10-22T07:34:14;99451.34;;;12.92;100.00
22550;BME280;11441;57.164;-2.120;2022-10-22T07:36:41;99447.41;;;12.86;100.00
22550;BME280;11441;57.164;-2.120;2022-10-22T07:39:07;99453.31;;;12.88;100.00
22550;BME280;11441;57.164;-2.120;2022-10-22T07:41:34;99457.69;;;12.82;100.00
22550;BME280;11441;57.164;-2.120;2022-10-22T07:44:01;99458.44;;;12.90;100.00
22550;BME280;11441;57.164;-2.120;2022-10-22T07:46:28;99458.03;;;12.91;100.00
22550;BME280;11441;57.164;-2.120;2022-10-22T07:48:55;99464.34;;;12.95;100.00
22550;BME280;11441;57.164;-2.120;2022-10-22T07:51:22;99464.72;;;12.97;100.00
22550;BME280;11441;57.164;-2.120;2022-10-22T07:53:49;99468.34;;;12.87;100.00
22550;BME280;11441;57.164;-2.120;2022-10-22T07:56:16;99471.06;;;12.91;100.00
22550;BME280;11441;57.164;-2.120;2022-10-22T07:58:43;99469.81;;;13.02;100.00
22550;BME280;11441;57.164;-2.120;2022-10-22T08:01:10;99473.03;;;13.01;100.00
22550;BME280;11441;57.164;-2.120;2022-10-22T08:03:36;99475.34;;;13.10;100.00
22550;BME280;11441;57.164;-2.120;2022-10-22T08:06:03;99482.06;;;13.05;100.00
22550;BME280;11441;57.164;-2.120;2022-10-22T08:08:30;99476.94;;;13.07;100.00
22550;BME280;11441;57.164;-2.120;2022-10-22T08:10:59;99481.66;;;13.10;100.00
22550;BME280;11441;57.164;-2.120;2022-10-22T08:13:27;99475.78;;;13.01;100.00
22550;BME280;11441;57.164;-2.120;2022-10-22T08:15:59;99474.59;;;12.98;100.00
22550;BME280;11441;57.164;-2.120;2022-10-22T08:18:26;99476.94;;;13.07;100.00
22550;BME280;11441;57.164;-2.120;2022-10-22T08:21:12;99480.09;;;13.06;100.00
22550;BME280;11441;57.164;-2.120;2022-10-22T08:23:58;99484.03;;;13.08;100.00
22550;BME280;11441;57.164;-2.120;2022-10-22T08:26:25;99489.16;;;13.06;100.00
22550;BME280;11441;57.164;-2.120;2022-10-22T08:28:52;99479.72;;;13.04;100.00
22550;BME280;11441;57.164;-2.120;2022-10-22T08:31:19;99486.03;;;13.00;100.00
22550;BME280;11441;57.164;-2.120;2022-10-22T08:33:46;99480.06;;;13.09;100.00
22550;BME280;11441;57.164;-2.120;2022-10-22T08:36:13;99489.97;;;13.07;100.00
22550;BME280;11441;57.164;-2.120;2022-10-22T08:38:40;99484.81;;;13.09;100.00
22550;BME280;11441;57.164;-2.120;2022-10-22T08:41:08;99491.53;;;13.15;100.00
22550;BME280;11441;57.164;-2.120;2022-10-22T08:48:57;99497.88;;;13.05;100.00
22550;BME280;11441;57.164;-2.120;2022-10-22T08:51:35;99501.81;;;13.07;100.00
22550;BME280;11441;57.164;-2.120;2022-10-22T08:54:17;99503.00;;;13.02;100.00
22550;BME280;11441;57.164;-2.120;2022-10-22T08:59:47;99502.97;;;13.13;100.00
22550;BME280;11441;57.164;-2.120;2022-10-22T09:05:05;99505.66;;;13.28;100.00
22550;BME280;11441;57.164;-2.120;2022-10-22T09:07:41;99500.94;;;13.21;100.00
22550;BME280;11441;57.164;-2.120;2022-10-22T09:10:10;99508.06;;;13.22;100.00
22550;BME280;11441;57.164;-2.120;2022-10-22T09:12:38;99502.97;;;13.13;100.00
22550;BME280;11441;57.164;-2.120;2022-10-22T09:15:05;99505.34;;;13.15;100.00
22550;BME280;11441;57.164;-2.120;2022-10-22T09:17:47;99502.13;;;13.27;100.00
22550;BME280;11441;57.164;-2.120;2022-10-22T09:20:40;99508.44;;;13.28;100.00
22550;BME280;11441;57.164;-2.120;2022-10-22T09:23:32;99504.88;;;13.27;100.00
22550;BME280;11441;57.164;-2.120;2022-10-22T09:26:11;99512.78;;;13.25;100.00
22550;BME280;11441;57.164;-2.120;2022-10-22T09:28:40;99516.78;;;13.13;100.00
22550;BME280;11441;57.164;-2.120;2022-10-22T09:31:12;99502.53;;;13.22;100.00
22550;BME280;11441;57.164;-2.120;2022-10-22T09:33:41;99509.66;;;13.19;100.00
22550;BME280;11441;57.164;-2.120;2022-10-22T09:36:12;99517.53;;;13.25;100.00
22550;BME280;11441;57.164;-2.120;2022-10-22T09:38:49;99524.66;;;13.22;100.00
22550;BME280;11441;57.164;-2.120;2022-10-22T09:41:18;99521.47;;;13.31;100.00
22550;BME280;11441;57.164;-2.120;2022-10-22T09:43:46;99520.66;;;13.34;100.00
22550;BME280;11441;57.164;-2.120;2022-10-22T09:46:32;99524.22;;;13.31;100.00
22550;BME280;11441;57.164;-2.120;2022-10-22T09:49:09;99529.78;;;13.24;100.00
22550;BME280;11441;57.164;-2.120;2022-10-22T09:59:19;99536.47;;;13.30;100.00
22550;BME280;11441;57.164;-2.120;2022-10-22T10:01:56;99539.25;;;13.23;100.00
22550;BME280;11441;57.164;-2.120;2022-10-22T10:04:49;99535.72;;;13.22;100.00
22550;BME280;11441;57.164;-2.120;2022-10-22T10:07:25;99544.38;;;13.28;100.00
22550;BME280;11441;57.164;-2.120;2022-10-22T10:09:53;99549.13;;;13.27;100.00
22550;BME280;11441;57.164;-2.120;2022-10-22T10:12:33;99546.75;;;13.29;100.00
22550;BME280;11441;57.164;-2.120;2022-10-22T10:15:25;99546.75;;;13.33;100.00
22550;BME280;11441;57.164;-2.120;2022-10-22T10:20:56;99555.81;;;13.37;100.00
22550;BME280;11441;57.164;-2.120;2022-10-22T10:34:42;99566.41;;;13.53;100.00
22550;BME280;11441;57.164;-2.120;2022-10-22T10:43:29;99579.00;;;13.65;100.00
22550;BME280;11441;57.164;-2.120;2022-10-22T10:48:59;99578.97;;;13.68;100.00
22550;BME280;11441;57.164;-2.120;2022-10-22T10:51:56;99577.75;;;13.76;100.00
22550;BME280;11441;57.164;-2.120;2022-10-22T10:57:54;99579.31;;;13.81;100.00
22550;BME280;11441;57.164;-2.120;2022-10-22T11:00:51;99582.09;;;13.81;100.00
22550;BME280;11441;57.164;-2.120;2022-10-22T11:06:09;99596.25;;;13.94;100.00
22550;BME280;11441;57.164;-2.120;2022-10-22T11:08:44;99594.59;;;14.00;100.00
22550;BME280;11441;57.164;-2.120;2022-10-22T11:11:25;99593.09;;;13.92;100.00
22550;BME280;11441;57.164;-2.120;2022-10-22T11:16:31;99589.44;;;14.06;100.00
22550;BME280;11441;57.164;-2.120;2022-10-22T11:21:37;99590.06;;;14.28;100.00
22550;BME280;11441;57.164;-2.120;2022-10-22T11:24:25;99591.28;;;14.27;100.00
22550;BME280;11441;57.164;-2.120;2022-10-22T11:27:02;99590.03;;;14.35;100.00
22550;BME280;11441;57.164;-2.120;2022-10-22T11:29:40;99590.81;;;14.36;100.00
22550;BME280;11441;57.164;-2.120;2022-10-22T11:32:17;99594.84;;;14.24;100.00
22550;BME280;11441;57.164;-2.120;2022-10-22T11:34:52;99588.81;;;14.40;100.00
22550;BME280;11441;57.164;-2.120;2022-10-22T11:37:21;99596.72;;;14.38;100.00
22550;BME280;11441;57.164;-2.120;2022-10-22T11:39:51;99597.88;;;14.44;100.00
22550;BME280;11441;57.164;-2.120;2022-10-22T11:42:32;99591.84;;;14.56;100.00
22550;BME280;11441;57.164;-2.120;2022-10-22T11:50:49;99597.69;;;14.69;100.00
22550;BME280;11441;57.164;-2.120;2022-10-22T11:58:41;99610.25;;;14.81;100.00
22550;BME280;11441;57.164;-2.120;2022-10-22T12:06:55;99606.28;;;14.82;100.00
22550;BME280;11441;57.164;-2.120;2022-10-22T12:09:24;99609.56;;;14.69;100.00
22550;BME280;11441;57.164;-2.120;2022-10-22T12:12:03;99619.13;;;14.58;100.00
22550;BME280;11441;57.164;-2.120;2022-10-22T12:14:52;99618.31;;;14.64;100.00
22550;BME280;11441;57.164;-2.120;2022-10-22T12:17:20;99618.69;;;14.70;100.00
22550;BME280;11441;57.164;-2.120;2022-10-22T12:20:11;99615.19;;;14.59;100.00
22550;BME280;11441;57.164;-2.120;2022-10-22T12:22:39;99619.97;;;14.55;100.00
22550;BME280;11441;57.164;-2.120;2022-10-22T12:25:23;99615.94;;;14.63;100.00
22550;BME280;11441;57.164;-2.120;2022-10-22T12:27:53;99614.41;;;14.55;100.00
22550;BME280;11441;57.164;-2.120;2022-10-22T12:30:39;99615.13;;;14.66;100.00
22550;BME280;11441;57.164;-2.120;2022-10-22T12:33:18;99600.53;;;14.62;100.00
22550;BME280;11441;57.164;-2.120;2022-10-22T12:35:47;99608.97;;;14.89;100.00
22550;BME280;11441;57.164;-2.120;2022-10-22T12:38:16;99610.41;;;14.66;100.00
22550;BME280;11441;57.164;-2.120;2022-10-22T12:40:46;99601.53;;;14.82;100.00
22550;BME280;11441;57.164;-2.120;2022-10-22T12:43:23;99602.16;;;14.97;100.00
22550;BME280;11441;57.164;-2.120;2022-10-22T12:46:12;99602.94;;;15.01;100.00
22550;BME280;11441;57.164;-2.120;2022-10-22T12:48:44;99611.84;;;14.78;100.00
22550;BME280;11441;57.164;-2.120;2022-10-22T12:51:16;99609.78;;;14.89;100.00
22550;BME280;11441;57.164;-2.120;2022-10-22T12:53:47;99608.25;;;14.81;100.00
22550;BME280;11441;57.164;-2.120;2022-10-22T12:56:21;99606.19;;;14.93;100.00
22550;BME280;11441;57.164;-2.120;2022-10-22T12:58:54;99616.09;;;14.90;100.00
22550;BME280;11441;57.164;-2.120;2022-10-22T13:01:24;99617.28;;;14.93;100.00
22550;BME280;11441;57.164;-2.120;2022-10-22T13:06:44;99608.03;;;15.06;100.00
22550;BME280;11441;57.164;-2.120;2022-10-22T13:09:20;99617.88;;;15.11;100.00
22550;BME280;11441;57.164;-2.120;2022-10-22T13:12:02;99615.53;;;15.06;100.00
22550;BME280;11441;57.164;-2.120;2022-10-22T13:14:32;99620.06;;;14.93;100.00
22550;BME280;11441;57.164;-2.120;2022-10-22T13:17:14;99611.75;;;14.89;100.00
22550;BME280;11441;57.164;-2.120;2022-10-22T13:19:53;99620.38;;;14.98;100.00
22550;BME280;11441;57.164;-2.120;2022-10-22T13:22:31;99611.25;;;14.98;100.00
22550;BME280;11441;57.164;-2.120;2022-10-22T13:27:54;99622.59;;;15.14;100.00
22550;BME280;11441;57.164;-2.120;2022-10-22T13:30:54;99620.53;;;15.22;100.00
22550;BME280;11441;57.164;-2.120;2022-10-22T13:33:35;99622.16;;;15.19;100.00
22550;BME280;11441;57.164;-2.120;2022-10-22T13:36:03;99626.75;;;15.33;100.00
22550;BME280;11441;57.164;-2.120;2022-10-22T13:38:31;99625.38;;;15.14;100.00
22550;BME280;11441;57.164;-2.120;2022-10-22T13:40:58;99625.97;;;15.33;100.00
22550;BME280;11441;57.164;-2.120;2022-10-22T13:43:25;99628.28;;;15.38;100.00
22550;BME280;11441;57.164;-2.120;2022-10-22T13:45:54;99634.31;;;15.29;100.00
22550;BME280;11441;57.164;-2.120;2022-10-22T13:48:43;99631.91;;;15.35;100.00
22550;BME280;11441;57.164;-2.120;2022-10-22T13:51:15;99634.19;;;15.43;100.00
22550;BME280;11441;57.164;-2.120;2022-10-22T13:53:44;99632.69;;;15.35;100.00
22550;BME280;11441;57.164;-2.120;2022-10-22T13:56:13;99633.00;;;15.41;100.00
22550;BME280;11441;57.164;-2.120;2022-10-22T13:58:42;99632.91;;;15.14;100.00
22550;BME280;11441;57.164;-2.120;2022-10-22T14:01:22;99639.97;;;15.18;100.00
22550;BME280;11441;57.164;-2.120;2022-10-22T14:03:55;99616.81;;;15.01;100.00
22550;BME280;11441;57.164;-2.120;2022-10-22T14:06:29;99633.97;;;15.23;100.00
22550;BME280;11441;57.164;-2.120;2022-10-22T14:12:01;99633.91;;;15.31;100.00
22550;BME280;11441;57.164;-2.120;2022-10-22T14:14:28;99634.72;;;15.31;100.00
22550;BME280;11441;57.164;-2.120;2022-10-22T14:16:55;99642.59;;;15.36;100.00
22550;BME280;11441;57.164;-2.120;2022-10-22T14:19:21;99642.78;;;15.15;100.00
22550;BME280;11441;57.164;-2.120;2022-10-22T14:22:18;99636.56;;;15.03;100.00
22550;BME280;11441;57.164;-2.120;2022-10-22T14:24:45;99650.31;;;14.73;100.00
22550;BME280;11441;57.164;-2.120;2022-10-22T14:27:14;99651.22;;;14.59;100.00
22550;BME280;11441;57.164;-2.120;2022-10-22T14:29:40;99657.97;;;14.50;100.00
22550;BME280;11441;57.164;-2.120;2022-10-22T14:32:13;99652.41;;;14.50;100.00
22550;BME280;11441;57.164;-2.120;2022-10-22T14:34:58;99656.41;;;14.49;100.00
22550;BME280;11441;57.164;-2.120;2022-10-22T14:37:27;99656.75;;;14.59;100.00
22550;BME280;11441;57.164;-2.120;2022-10-22T14:39:53;99663.13;;;14.48;100.00
22550;BME280;11441;57.164;-2.120;2022-10-22T14:42:27;99656.38;;;14.53;100.00